createdAt,value
2018-10-19T00:00:55.236Z,60.10
2018-10-19T00:06:36.250Z,60.47
2018-10-19T00:09:08.504Z,58.47
2018-10-19T00:11:40.440Z,60.70
2018-10-19T00:42:42.851Z,74.13
2018-10-19T03:19:06.839Z,39.60
2018-10-19T03:21:36.388Z,41.20
2018-10-19T03:24:10.434Z,45.07
2018-10-19T03:26:42.186Z,42.10
2018-10-19T03:29:11.577Z,45.93
2018-10-19T03:31:50.199Z,44.03
2018-10-19T03:34:19.803Z,43.73
2018-10-19T03:36:53.807Z,46.07
2018-10-19T03:39:23.488Z,43.30
2018-10-19T03:41:53.660Z,42.87
2018-10-19T03:44:29.614Z,43.47
2018-10-19T03:47:02.477Z,45.23
2018-10-19T03:49:32.059Z,44.20
2018-10-19T03:52:01.743Z,43.87
2018-10-19T03:54:31.380Z,43.77
2018-10-19T03:57:01.113Z,43.07
2018-10-19T03:59:30.941Z,46.87
2018-10-19T04:02:00.718Z,47.23
2018-10-19T04:04:30.459Z,45.23
2018-10-19T04:07:00.088Z,48.47
2018-10-19T04:09:29.763Z,46.40
2018-10-19T04:11:59.527Z,45.20
2018-10-19T04:14:29.434Z,43.93
2018-10-19T04:16:59.143Z,48.47
2018-10-19T04:19:44.853Z,46.07
2018-10-19T04:22:14.158Z,47.33
2018-10-19T04:24:46.323Z,43.07
2018-10-19T04:27:16.178Z,48.03
2018-10-19T04:29:45.923Z,50.17
2018-10-19T04:32:16.947Z,49.57
2018-10-19T04:34:46.271Z,49.80
2018-10-19T04:37:30.536Z,47.60
2018-10-19T04:40:00.171Z,49.83
2018-10-19T04:42:35.455Z,50.27
2018-10-19T04:45:05.163Z,50.77
2018-10-19T04:47:34.686Z,49.80
2018-10-19T04:50:04.555Z,50.97
2018-10-19T04:52:33.868Z,50.13
2018-10-19T04:55:03.548Z,50.90
2018-10-19T04:57:33.949Z,53.13
2018-10-19T05:00:04.423Z,48.63
2018-10-19T05:02:34.447Z,48.10
2018-10-19T05:05:04.757Z,52.50
2018-10-19T05:07:34.929Z,55.67
2018-10-19T05:10:05.255Z,50.07
2018-10-19T05:12:35.054Z,55.47
2018-10-19T05:15:05.902Z,50.17
2018-10-19T05:17:35.176Z,51.13
2018-10-19T05:20:06.070Z,51.13
2018-10-19T05:22:36.063Z,48.20
2018-10-19T05:25:07.759Z,48.20
2018-10-19T05:27:37.478Z,45.53
2018-10-19T05:30:07.682Z,49.90
2018-10-19T05:32:37.326Z,49.90
2018-10-19T05:35:07.629Z,51.37
2018-10-19T05:37:38.514Z,52.43
2018-10-19T05:40:09.432Z,47.27
2018-10-19T05:42:39.089Z,50.27
2018-10-19T05:45:10.385Z,49.33
2018-10-19T05:47:40.115Z,48.83
2018-10-19T05:50:11.183Z,53.93
2018-10-19T05:52:42.259Z,48.03
2018-10-19T05:55:11.855Z,53.87
2018-10-19T05:57:41.502Z,52.87
2018-10-19T06:00:12.335Z,48.47
2018-10-19T06:02:41.990Z,49.50
2018-10-19T06:05:11.839Z,54.17
2018-10-19T06:07:41.659Z,54.57
2018-10-19T06:10:11.352Z,51.17
2018-10-19T06:12:40.982Z,45.97
2018-10-19T06:15:10.635Z,50.13
2018-10-19T06:17:40.259Z,47.80
2018-10-19T06:20:10.104Z,47.43
2018-10-19T06:22:39.533Z,44.17
2018-10-19T06:25:09.100Z,45.93
2018-10-19T06:27:38.773Z,49.10
2018-10-19T06:30:08.881Z,49.67
2018-10-19T06:32:38.967Z,51.20
2018-10-19T06:35:08.993Z,44.67
2018-10-19T06:37:38.738Z,46.17
2018-10-19T06:40:08.329Z,47.63
2018-10-19T06:42:37.921Z,44.33
2018-10-19T06:45:08.072Z,49.00
2018-10-19T06:47:37.648Z,47.27
2018-10-19T06:50:09.844Z,48.13
2018-10-19T06:52:40.061Z,46.43
2018-10-19T06:55:11.718Z,42.63
2018-10-19T06:57:41.376Z,42.03
2018-10-19T07:00:11.033Z,42.90
2018-10-19T07:02:40.244Z,40.70
2018-10-19T07:05:09.756Z,45.63
2018-10-19T07:07:39.541Z,41.83
2018-10-19T07:10:10.075Z,41.90
2018-10-19T07:12:40.361Z,41.50
2018-10-19T07:15:10.638Z,38.73
2018-10-19T07:17:39.908Z,40.90
2018-10-19T07:20:11.028Z,37.83
2018-10-19T07:22:40.796Z,39.50
2018-10-19T07:25:10.369Z,38.67
2018-10-19T07:27:39.954Z,39.07
2018-10-19T07:30:09.581Z,38.63
2018-10-19T07:32:39.186Z,39.70
2018-10-19T07:35:09.205Z,36.37
2018-10-19T07:37:38.981Z,37.47
2018-10-19T07:40:08.599Z,35.13
2018-10-19T07:42:38.177Z,35.53
2018-10-19T07:45:07.766Z,41.00
2018-10-19T07:47:37.426Z,37.23
2018-10-19T07:50:07.843Z,37.20
2018-10-19T07:52:38.049Z,36.93
2018-10-19T07:55:08.506Z,36.00
2018-10-19T07:57:38.074Z,36.83
2018-10-19T08:00:09.314Z,36.03
2018-10-19T08:02:38.676Z,38.90
2018-10-19T08:05:09.136Z,35.87
2018-10-19T08:07:38.913Z,35.93
2018-10-19T08:10:09.645Z,33.17
2018-10-19T08:12:38.844Z,32.90
2018-10-19T08:15:09.457Z,34.57
2018-10-19T08:17:39.537Z,34.43
2018-10-19T08:20:10.326Z,30.90
2018-10-19T08:22:40.229Z,34.00
2018-10-19T08:25:09.818Z,29.27
2018-10-19T08:27:39.075Z,31.17
2018-10-19T08:30:08.621Z,40.30
2018-10-19T08:32:37.837Z,31.77
2018-10-19T08:35:07.784Z,31.60
2018-10-19T08:37:37.218Z,27.27
2018-10-19T08:40:07.633Z,29.87
2018-10-19T08:42:37.257Z,29.90
2018-10-19T08:45:07.932Z,27.87
2018-10-19T08:47:37.710Z,27.03
2018-10-19T08:50:08.185Z,28.47
2018-10-19T08:52:37.380Z,23.83
2018-10-19T08:55:07.000Z,25.47
2018-10-19T08:57:36.778Z,28.87
2018-10-19T09:00:08.389Z,28.53
2018-10-19T09:02:37.792Z,28.03
2018-10-19T09:05:07.496Z,25.47
2018-10-19T09:07:37.296Z,26.03
2018-10-19T09:10:07.569Z,26.73
2018-10-19T09:12:37.222Z,27.43
2018-10-19T09:15:07.790Z,27.40
2018-10-19T09:17:37.509Z,28.40
2018-10-19T09:20:07.497Z,25.07
2018-10-19T09:22:36.677Z,27.57
2018-10-19T09:25:06.469Z,25.43
2018-10-19T09:27:36.047Z,24.67
2018-10-19T09:30:06.969Z,25.23
2018-10-19T09:32:36.541Z,24.37
2018-10-19T09:35:06.174Z,24.73
2018-10-19T09:37:35.957Z,24.30
2018-10-19T09:40:05.891Z,26.10
2018-10-19T09:42:35.700Z,26.90
2018-10-19T09:45:06.249Z,26.33
2018-10-19T09:47:36.064Z,22.40
2018-10-19T09:50:06.401Z,19.40
2018-10-19T09:52:36.004Z,20.20
2018-10-19T09:55:06.623Z,22.60
2018-10-19T09:57:36.507Z,22.00
2018-10-19T10:00:15.812Z,22.53
2018-10-19T10:02:45.117Z,21.27
2018-10-19T10:05:14.657Z,22.53
2018-10-19T10:07:44.054Z,22.97
2018-10-19T10:10:13.751Z,23.43
2018-10-19T10:12:43.306Z,24.17
2018-10-19T10:15:13.123Z,23.80
2018-10-19T10:17:42.670Z,25.10
2018-10-19T10:20:12.225Z,23.83
2018-10-19T10:22:41.792Z,24.03
2018-10-19T10:25:11.474Z,23.10
2018-10-19T10:27:41.196Z,25.07
2018-10-19T10:30:11.560Z,24.60
2018-10-19T10:32:40.820Z,24.33
2018-10-19T10:35:10.534Z,24.37
2018-10-19T10:37:40.126Z,24.60
2018-10-19T10:40:09.785Z,24.63
2018-10-19T10:42:39.881Z,23.80
2018-10-19T10:45:09.645Z,24.63
2018-10-19T10:47:39.198Z,22.67
2018-10-19T10:50:09.161Z,23.77
2018-10-19T10:52:38.725Z,22.57
2018-10-19T10:55:07.943Z,23.20
2018-10-19T10:57:37.605Z,23.77
2018-10-19T11:00:07.701Z,23.23
2018-10-19T11:02:37.315Z,22.57
2018-10-19T11:05:07.001Z,23.90
2018-10-19T11:07:36.361Z,22.43
2018-10-19T11:10:06.080Z,23.37
2018-10-19T11:12:36.063Z,22.20
2018-10-19T11:15:05.845Z,21.67
2018-10-19T11:17:35.358Z,23.23
2018-10-19T11:20:05.710Z,22.30
2018-10-19T11:22:35.298Z,24.10
2018-10-19T11:25:05.879Z,21.97
2018-10-19T11:27:35.641Z,23.67
2018-10-19T11:30:06.047Z,23.40
2018-10-19T11:32:35.633Z,23.97
2018-10-19T11:35:05.355Z,23.70
2018-10-19T11:37:34.929Z,24.00
2018-10-19T11:40:33.157Z,23.43
2018-10-19T11:43:03.046Z,22.87
2018-10-19T11:45:33.946Z,23.77
2018-10-19T11:48:03.540Z,23.00
2018-10-19T11:50:33.490Z,22.83
2018-10-19T11:53:03.044Z,23.63
2018-10-19T11:55:32.231Z,23.53
2018-10-19T11:58:01.390Z,23.80
2018-10-19T12:00:31.090Z,22.40
2018-10-19T12:03:00.661Z,23.50
2018-10-19T12:05:30.261Z,24.17
2018-10-19T12:07:59.845Z,23.50
2018-10-19T12:10:29.456Z,25.13
2018-10-19T12:12:59.218Z,26.67
2018-10-19T12:15:28.790Z,25.07
2018-10-19T12:17:58.004Z,24.63
2018-10-19T12:20:27.508Z,23.47
2018-10-19T12:22:57.094Z,24.37
2018-10-19T12:25:26.693Z,25.23
2018-10-19T12:27:56.289Z,24.43
2018-10-19T12:30:25.877Z,25.13
2018-10-19T12:32:55.468Z,24.97
2018-10-19T12:35:25.331Z,25.67
2018-10-19T12:37:55.022Z,23.83
2018-10-19T12:40:24.593Z,22.73
2018-10-19T12:42:54.224Z,26.03
2018-10-19T12:46:37.309Z,24.07
2018-10-19T12:49:07.135Z,26.07
2018-10-19T12:51:36.861Z,26.23
2018-10-19T12:54:06.215Z,28.33
2018-10-19T12:56:35.885Z,26.60
2018-10-19T12:59:06.169Z,26.83
2018-10-19T13:01:35.563Z,28.07
2018-10-19T13:04:05.288Z,26.97
2018-10-19T13:06:34.881Z,28.63
2018-10-19T13:09:07.457Z,26.67
2018-10-19T13:11:37.193Z,28.97
2018-10-19T13:14:07.117Z,28.17
2018-10-19T13:16:36.709Z,29.50
2018-10-19T13:19:06.334Z,27.40
2018-10-19T13:21:36.120Z,26.90
2018-10-19T13:24:05.999Z,26.87
2018-10-19T13:26:35.692Z,27.17
2018-10-19T13:29:05.832Z,26.53
2018-10-19T13:31:35.386Z,26.50
2018-10-19T13:34:05.105Z,28.47
2018-10-19T13:36:34.865Z,24.43
2018-10-19T13:39:06.438Z,24.07
2018-10-19T13:41:36.241Z,25.80
2018-10-19T13:44:06.055Z,25.80
2018-10-19T13:46:35.616Z,26.10
2018-10-19T13:49:05.598Z,25.20
2018-10-19T13:51:35.141Z,25.53
2018-10-19T13:54:05.025Z,24.20
2018-10-19T13:56:34.637Z,26.40
2018-10-19T13:59:04.275Z,24.97
2018-10-19T14:01:33.477Z,24.93
2018-10-19T14:04:03.033Z,27.50
2018-10-19T14:06:32.593Z,28.43
2018-10-19T14:09:02.274Z,25.73
2018-10-19T14:11:32.414Z,26.40
2018-10-19T14:14:01.993Z,25.80
2018-10-19T14:16:31.549Z,24.97
2018-10-19T14:19:01.242Z,24.63
2018-10-19T14:21:30.982Z,25.27
2018-10-19T14:24:00.610Z,23.90
2018-10-19T14:26:30.201Z,24.97
2018-10-19T14:28:59.646Z,24.47
2018-10-19T14:31:29.333Z,25.13
2018-10-19T14:33:58.931Z,26.20
2018-10-19T14:36:28.561Z,25.67
2018-10-19T14:38:58.202Z,25.83
2018-10-19T14:41:27.922Z,25.70
2018-10-19T14:43:57.499Z,26.57
2018-10-19T14:46:26.777Z,24.27
2018-10-19T14:48:55.948Z,25.63
2018-10-19T14:51:27.413Z,24.57
2018-10-19T14:53:56.977Z,25.50
2018-10-19T14:56:26.543Z,23.00
2018-10-19T14:58:55.776Z,25.57
2018-10-19T15:01:24.881Z,23.37
2018-10-19T15:03:54.389Z,23.70
2018-10-19T15:06:23.950Z,22.80
2018-10-19T15:08:53.533Z,24.80
2018-10-19T15:11:23.265Z,24.93
2018-10-19T15:13:52.717Z,25.63
2018-10-19T15:16:21.908Z,25.30
2018-10-19T15:18:51.398Z,24.63
2018-10-19T15:21:20.616Z,24.40
2018-10-19T15:23:50.129Z,24.00
2018-10-19T15:26:19.938Z,22.00
2018-10-19T15:28:49.584Z,25.70
2018-10-19T15:31:18.973Z,33.87
2018-10-19T15:33:48.741Z,34.63
2018-10-19T15:36:18.350Z,33.97
2018-10-19T15:38:47.777Z,34.90
2018-10-19T15:41:17.235Z,36.73
2018-10-19T15:43:46.720Z,36.60
2018-10-19T15:46:15.821Z,36.83
2018-10-19T15:48:45.280Z,36.43
2018-10-19T15:51:15.044Z,38.67
2018-10-19T15:53:44.974Z,36.10
2018-10-19T15:56:14.487Z,39.70
2018-10-19T15:58:44.097Z,35.93
2018-10-19T16:01:13.389Z,40.23
2018-10-19T16:03:42.873Z,39.77
2018-10-19T16:06:12.534Z,37.73
2018-10-19T16:08:42.322Z,40.30
2018-10-19T16:11:11.537Z,39.03
2018-10-19T16:13:40.709Z,42.73
2018-10-19T16:16:10.481Z,37.67
2018-10-19T16:18:40.248Z,35.70
2018-10-19T16:21:15.786Z,34.87
2018-10-19T16:23:45.567Z,34.93
2018-10-19T16:26:14.788Z,34.27
2018-10-19T16:28:44.277Z,36.60
2018-10-19T16:31:13.846Z,35.13
2018-10-19T16:33:43.566Z,36.67
2018-10-19T16:36:12.823Z,34.73
2018-10-19T16:38:43.002Z,36.37
2018-10-19T16:41:12.617Z,34.23
2018-10-19T16:43:42.294Z,34.63
2018-10-19T16:46:12.578Z,35.33
2018-10-19T16:48:42.911Z,35.33
2018-10-19T16:51:12.551Z,35.37
2018-10-19T16:53:42.561Z,37.33
2018-10-19T16:56:14.159Z,40.83
2018-10-19T16:58:43.756Z,43.47
2018-10-19T17:01:13.313Z,41.87
2018-10-19T17:03:42.964Z,39.40
2018-10-19T17:06:12.231Z,37.00
2018-10-19T17:08:41.462Z,36.37
2018-10-19T17:11:11.293Z,39.93
2018-10-19T17:13:40.872Z,40.10
2018-10-19T17:16:10.465Z,40.07
2018-10-19T17:18:40.789Z,43.50
2018-10-19T17:21:10.527Z,40.03
2018-10-19T17:23:39.929Z,44.67
2018-10-19T17:26:09.725Z,42.07
2018-10-19T17:28:39.293Z,47.43
2018-10-19T17:31:08.934Z,48.60
2018-10-19T17:33:38.523Z,46.90
2018-10-19T17:36:08.092Z,44.23
2018-10-19T17:38:37.777Z,44.20
2018-10-19T17:41:07.470Z,44.23
2018-10-19T17:43:37.209Z,41.23
2018-10-19T17:46:07.413Z,39.27
2018-10-19T17:48:37.038Z,37.43
2018-10-19T17:51:07.533Z,39.27
2018-10-19T17:53:37.374Z,36.83
2018-10-19T17:56:06.968Z,36.57
2018-10-19T17:58:36.164Z,36.33
2018-10-19T18:01:05.826Z,35.70
2018-10-19T18:03:35.369Z,36.70
2018-10-19T18:06:05.474Z,37.23
2018-10-19T18:08:35.307Z,37.10
2018-10-19T18:11:04.923Z,37.30
2018-10-19T18:13:34.405Z,36.67
2018-10-19T18:16:04.440Z,39.30
2018-10-19T18:18:34.774Z,35.37
2018-10-19T18:21:04.020Z,41.13
2018-10-19T18:23:33.740Z,42.43
2018-10-19T18:26:03.389Z,47.93
2018-10-19T18:28:32.837Z,41.57
2018-10-19T18:31:02.535Z,41.47
2018-10-19T18:33:32.176Z,41.87
2018-10-19T18:36:01.381Z,41.73
2018-10-19T18:38:31.060Z,37.80
2018-10-19T18:41:01.047Z,42.77
2018-10-19T18:43:31.080Z,40.93
2018-10-19T18:46:00.659Z,42.30
2018-10-19T18:48:30.578Z,40.97
2018-10-19T18:51:00.180Z,40.03
2018-10-19T18:53:29.747Z,44.73
2018-10-19T18:55:58.980Z,41.23
2018-10-19T18:58:28.260Z,41.43
2018-10-19T19:00:57.749Z,39.23
2018-10-19T19:03:27.325Z,38.10
2018-10-19T19:05:56.967Z,37.57
2018-10-19T19:08:26.196Z,34.13
2018-10-19T19:10:55.733Z,35.53
2018-10-19T19:13:31.661Z,34.23
2018-10-19T19:16:01.411Z,34.57
2018-10-19T19:18:30.727Z,32.57
2018-10-19T19:20:59.858Z,33.47
2018-10-19T19:23:30.401Z,36.73
2018-10-19T19:26:13.688Z,35.83
2018-10-19T19:28:43.760Z,38.07
2018-10-19T19:31:14.163Z,33.57
2018-10-19T19:33:49.115Z,34.63
2018-10-19T19:36:18.634Z,32.40
2018-10-19T19:38:48.409Z,31.93
2018-10-19T19:41:23.073Z,31.47
2018-10-19T19:43:52.585Z,31.83
2018-10-19T19:46:22.194Z,31.37
2018-10-19T19:48:57.158Z,29.50
2018-10-19T19:51:26.939Z,29.93
2018-10-19T19:53:56.569Z,28.00
2018-10-19T19:56:25.829Z,28.70
2018-10-19T19:58:55.743Z,26.97
2018-10-19T20:01:25.601Z,27.67
2018-10-19T20:03:55.233Z,28.43
2018-10-19T20:06:24.903Z,28.27
2018-10-19T20:08:54.541Z,30.03
2018-10-19T20:11:24.347Z,31.07
2018-10-19T20:13:54.291Z,29.53
2018-10-19T20:16:24.250Z,27.43
2018-10-19T20:18:53.909Z,31.80
2018-10-19T20:21:23.485Z,27.93
2018-10-19T20:23:53.081Z,27.83
2018-10-19T20:26:22.649Z,30.23
2018-10-19T20:28:52.208Z,28.57
2018-10-19T20:31:22.017Z,30.17
2018-10-19T20:33:52.040Z,30.57
2018-10-19T20:36:21.742Z,29.17
2018-10-19T20:38:51.297Z,29.07
2018-10-19T20:41:21.083Z,30.57
2018-10-19T20:43:50.745Z,30.83
2018-10-19T20:46:20.896Z,31.17
2018-10-19T20:48:54.558Z,31.60
2018-10-19T20:51:25.093Z,31.97
2018-10-19T20:53:54.693Z,31.97
2018-10-19T20:56:24.261Z,31.33
2018-10-19T20:58:53.575Z,29.43
2018-10-19T21:01:23.418Z,28.67
2018-10-19T21:03:52.686Z,30.77
2018-10-19T21:06:22.245Z,28.63
2018-10-19T21:08:51.489Z,28.13
2018-10-19T21:11:21.005Z,29.90
2018-10-19T21:13:50.558Z,28.67
2018-10-19T21:16:20.101Z,27.17
2018-10-19T21:18:49.686Z,28.73
2018-10-19T21:21:19.232Z,27.47
2018-10-19T21:23:48.873Z,29.40
2018-10-19T21:26:23.125Z,28.13
2018-10-19T21:28:52.748Z,28.10
2018-10-19T21:31:22.469Z,27.70
2018-10-19T21:33:51.655Z,29.33
2018-10-19T21:36:21.199Z,27.20
2018-10-19T21:38:50.932Z,27.07
2018-10-19T21:41:20.504Z,25.93
2018-10-19T21:43:49.840Z,25.20
2018-10-19T21:46:19.337Z,26.03
2018-10-19T21:48:48.871Z,24.23
2018-10-19T21:51:18.405Z,24.70
2018-10-19T21:53:47.948Z,24.63
2018-10-19T21:56:17.489Z,24.80
2018-10-19T21:58:46.676Z,24.67
2018-10-19T22:01:17.193Z,24.10
2018-10-19T22:03:50.384Z,22.10
2018-10-19T22:06:22.167Z,25.53
2018-10-19T22:09:12.202Z,24.17
2018-10-19T22:11:53.454Z,24.90
2018-10-19T22:14:31.320Z,27.13
2018-10-19T22:17:02.877Z,24.37
2018-10-19T22:19:41.119Z,24.43
2018-10-19T22:22:20.908Z,26.00
2018-10-19T22:24:57.664Z,25.67
2018-10-19T22:27:33.935Z,25.83
2018-10-19T22:30:10.816Z,26.53
2018-10-19T22:32:48.024Z,25.40
2018-10-19T22:35:19.106Z,26.73
2018-10-19T22:37:48.636Z,26.67
2018-10-19T22:40:18.182Z,28.30
2018-10-19T22:42:47.380Z,27.67
2018-10-19T22:45:16.828Z,28.47
2018-10-19T22:47:46.380Z,27.17
2018-10-19T22:50:15.568Z,27.80
2018-10-19T22:52:45.044Z,25.97
2018-10-19T22:55:14.661Z,25.87
2018-10-19T22:57:44.421Z,28.53
2018-10-19T23:00:14.169Z,26.90
2018-10-19T23:02:43.741Z,26.00
2018-10-19T23:05:13.392Z,27.27
2018-10-19T23:07:43.145Z,28.33
2018-10-19T23:10:12.469Z,28.73
2018-10-19T23:12:42.056Z,28.10
2018-10-19T23:15:11.258Z,27.50
2018-10-19T23:17:40.713Z,26.57
2018-10-19T23:20:10.301Z,27.50
2018-10-19T23:22:39.869Z,29.47
2018-10-19T23:25:09.087Z,27.60
2018-10-19T23:27:39.016Z,27.43
2018-10-19T23:30:08.864Z,27.53
2018-10-19T23:32:38.401Z,28.53
2018-10-19T23:35:08.201Z,28.63
2018-10-19T23:37:37.885Z,29.00
2018-10-19T23:40:07.973Z,27.27
2018-10-19T23:42:37.517Z,27.33
2018-10-19T23:45:08.009Z,27.90
2018-10-19T23:47:37.652Z,28.27
2018-10-19T23:50:07.943Z,27.17
2018-10-19T23:52:37.573Z,25.70
2018-10-19T23:55:07.353Z,27.47
2018-10-19T23:57:37.148Z,27.73
